createdAt,value
2022-11-21T00:00:19.782Z,9.87
2022-11-21T00:03:06.312Z,9.90
2022-11-21T00:05:34.541Z,9.69
2022-11-21T00:08:04.666Z,9.74
2022-11-21T00:10:31.891Z,9.75
2022-11-21T00:13:01.736Z,9.77
2022-11-21T00:15:29.033Z,9.72
2022-11-21T00:17:56.117Z,9.73
2022-11-21T00:20:23.475Z,9.75
2022-11-21T00:22:53.945Z,9.84
2022-11-21T00:25:21.335Z,9.73
2022-11-21T00:27:48.766Z,9.85
2022-11-21T00:30:16.433Z,9.82
2022-11-21T00:32:43.591Z,9.87
2022-11-21T00:35:10.711Z,9.80
2022-11-21T00:37:37.823Z,9.76
2022-11-21T00:40:07.908Z,9.83
2022-11-21T00:42:37.954Z,9.84
2022-11-21T00:45:05.759Z,9.89
2022-11-21T00:47:35.695Z,9.88
2022-11-21T00:50:02.943Z,9.70
2022-11-21T00:52:30.060Z,9.80
2022-11-21T00:54:57.128Z,9.90
2022-11-21T00:57:25.424Z,9.78
2022-11-21T00:59:52.480Z,9.89
2022-11-21T01:02:19.718Z,9.91
2022-11-21T01:04:46.900Z,10.04
2022-11-21T01:07:14.939Z,10.00
2022-11-21T01:09:42.125Z,9.96
2022-11-21T01:12:09.273Z,9.91
2022-11-21T01:14:36.361Z,10.19
2022-11-21T01:17:03.477Z,9.94
2022-11-21T01:19:32.963Z,9.99
2022-11-21T01:22:00.327Z,9.88
2022-11-21T01:24:27.790Z,10.05
2022-11-21T01:26:55.075Z,10.05
2022-11-21T01:29:22.175Z,10.04
2022-11-21T01:31:49.345Z,9.85
2022-11-21T01:34:17.086Z,9.96
2022-11-21T01:36:44.608Z,9.98
2022-11-21T01:39:12.167Z,10.00
2022-11-21T01:41:44.346Z,9.99
2022-11-21T01:44:44.852Z,10.08
2022-11-21T01:47:12.129Z,9.93
2022-11-21T01:49:41.978Z,10.00
2022-11-21T01:52:30.830Z,10.03
2022-11-21T01:55:10.949Z,9.98
2022-11-21T01:57:48.115Z,9.97
2022-11-21T02:00:23.037Z,9.92
2022-11-21T02:02:59.069Z,10.02
2022-11-21T02:05:30.279Z,10.04
2022-11-21T02:08:02.594Z,10.16
2022-11-21T02:10:29.804Z,10.01
2022-11-21T02:12:58.731Z,10.14
2022-11-21T02:15:29.572Z,10.18
2022-11-21T02:17:56.759Z,9.95
2022-11-21T02:20:28.887Z,9.89
2022-11-21T02:23:30.054Z,9.97
2022-11-21T02:25:59.285Z,9.96
2022-11-21T02:28:26.598Z,9.85
2022-11-21T02:30:53.859Z,9.77
2022-11-21T02:33:20.994Z,9.80
2022-11-21T02:36:04.645Z,9.80
2022-11-21T02:38:38.827Z,9.85
2022-11-21T02:41:05.919Z,9.83
2022-11-21T02:43:42.487Z,9.89
2022-11-21T02:46:09.604Z,9.80
2022-11-21T02:48:38.291Z,9.91
2022-11-21T02:51:05.513Z,9.89
2022-11-21T02:53:32.958Z,9.85
2022-11-21T02:56:03.433Z,9.96
2022-11-21T02:58:34.299Z,10.17
2022-11-21T03:01:02.218Z,10.29
2022-11-21T03:03:29.911Z,10.23
2022-11-21T03:05:57.907Z,10.37
2022-11-21T03:08:25.035Z,10.32
2022-11-21T03:10:52.733Z,10.34
2022-11-21T03:13:19.836Z,10.18
2022-11-21T03:15:46.985Z,10.38
2022-11-21T03:18:17.054Z,10.25
2022-11-21T03:20:44.203Z,10.19
2022-11-21T03:23:11.310Z,10.17
2022-11-21T03:25:38.418Z,10.19
2022-11-21T03:28:05.518Z,10.34
2022-11-21T03:30:32.698Z,10.07
2022-11-21T03:32:59.861Z,9.94
2022-11-21T03:35:27.048Z,10.09
2022-11-21T03:37:54.157Z,9.97
2022-11-21T03:40:21.347Z,9.99
2022-11-21T03:42:48.416Z,9.92
2022-11-21T03:45:15.510Z,10.07
2022-11-21T03:47:42.649Z,10.07
2022-11-21T03:50:10.146Z,10.28
2022-11-21T03:52:37.425Z,10.16
2022-11-21T03:55:04.816Z,10.23
2022-11-21T03:57:31.963Z,10.14
2022-11-21T03:59:59.045Z,10.05
2022-11-21T04:02:26.229Z,9.90
2022-11-21T04:04:53.300Z,10.05
2022-11-21T04:07:23.283Z,9.84
2022-11-21T04:09:50.379Z,9.81
2022-11-21T04:12:17.529Z,9.78
2022-11-21T04:14:44.604Z,9.95
2022-11-21T04:17:11.727Z,9.80
2022-11-21T04:19:38.864Z,9.85
2022-11-21T04:22:05.951Z,9.82
2022-11-21T04:24:33.055Z,9.85
2022-11-21T04:27:01.353Z,9.92
2022-11-21T04:29:28.515Z,9.77
2022-11-21T04:31:55.664Z,11.65
2022-11-21T04:34:23.130Z,12.40
2022-11-21T04:36:54.088Z,13.50
2022-11-21T04:39:23.493Z,12.81
2022-11-21T04:41:50.696Z,13.05
2022-11-21T04:44:20.581Z,12.84
2022-11-21T04:46:48.053Z,12.48
2022-11-21T04:49:15.116Z,12.36
2022-11-21T04:51:45.505Z,12.62
2022-11-21T04:54:12.738Z,12.72
2022-11-21T04:56:46.422Z,13.11
2022-11-21T04:59:17.073Z,13.18
2022-11-21T05:01:44.334Z,12.34
2022-11-21T05:04:11.685Z,11.34
2022-11-21T05:06:41.914Z,10.70
2022-11-21T05:09:09.251Z,10.57
2022-11-21T05:11:37.277Z,10.52
2022-11-21T05:14:07.814Z,10.34
2022-11-21T05:16:39.088Z,10.31
2022-11-21T05:19:26.428Z,10.28
2022-11-21T05:21:56.944Z,10.24
2022-11-21T05:24:36.224Z,10.19
2022-11-21T05:27:05.112Z,10.11
2022-11-21T05:29:32.782Z,10.12
2022-11-21T05:32:00.495Z,10.25
2022-11-21T05:34:28.442Z,10.11
2022-11-21T05:36:56.271Z,10.13
2022-11-21T05:39:27.295Z,10.16
2022-11-21T05:42:02.664Z,10.19
2022-11-21T05:44:31.168Z,10.13
2022-11-21T05:46:58.502Z,10.16
2022-11-21T05:49:25.761Z,10.12
2022-11-21T05:51:52.933Z,10.22
2022-11-21T05:54:20.122Z,10.19
2022-11-21T05:56:47.213Z,10.15
2022-11-21T05:59:17.223Z,10.32
2022-11-21T06:01:45.393Z,10.28
2022-11-21T06:04:12.648Z,10.29
2022-11-21T06:06:39.863Z,10.22
2022-11-21T06:09:07.432Z,10.22
2022-11-21T06:11:34.576Z,10.28
2022-11-21T06:14:01.724Z,13.99
2022-11-21T06:16:28.877Z,14.48
2022-11-21T06:18:58.732Z,13.46
2022-11-21T06:21:29.401Z,11.92
2022-11-21T06:23:58.334Z,11.59
2022-11-21T06:26:28.496Z,11.07
2022-11-21T06:29:04.404Z,10.99
2022-11-21T06:31:35.113Z,10.82
2022-11-21T06:34:07.311Z,10.56
2022-11-21T06:36:35.154Z,10.56
2022-11-21T06:39:21.768Z,10.64
2022-11-21T06:42:08.324Z,10.73
2022-11-21T06:44:54.885Z,10.78
2022-11-21T06:47:41.484Z,10.55
2022-11-21T06:50:28.035Z,10.69
2022-11-21T06:52:58.088Z,10.41
2022-11-21T06:55:28.254Z,10.23
2022-11-21T06:57:58.452Z,10.36
2022-11-21T07:00:27.302Z,10.34
2022-11-21T07:03:00.082Z,10.29
2022-11-21T07:05:30.252Z,10.20
2022-11-21T07:08:01.935Z,10.09
2022-11-21T07:10:30.598Z,10.13
2022-11-21T07:13:01.312Z,9.94
2022-11-21T07:15:28.948Z,9.99
2022-11-21T07:17:58.895Z,9.83
2022-11-21T07:20:26.040Z,9.90
2022-11-21T07:22:59.090Z,9.92
2022-11-21T07:25:26.163Z,9.84
2022-11-21T07:27:53.346Z,9.79
2022-11-21T07:30:20.462Z,9.84
2022-11-21T07:32:47.632Z,9.68
2022-11-21T07:35:17.316Z,9.79
2022-11-21T07:37:44.448Z,9.73
2022-11-21T07:40:14.661Z,9.82
2022-11-21T07:42:45.182Z,9.76
2022-11-21T07:45:15.822Z,9.51
2022-11-21T07:47:46.709Z,9.70
2022-11-21T07:50:18.813Z,9.70
2022-11-21T07:52:45.969Z,9.55
2022-11-21T07:55:16.150Z,9.34
2022-11-21T07:57:45.944Z,9.44
2022-11-21T08:00:19.173Z,9.46
2022-11-21T08:02:52.251Z,9.30
2022-11-21T08:05:25.925Z,9.21
2022-11-21T08:07:53.347Z,9.28
2022-11-21T08:10:20.971Z,9.32
2022-11-21T08:12:48.100Z,9.21
2022-11-21T08:15:17.997Z,9.01
2022-11-21T08:17:46.030Z,9.15
2022-11-21T08:20:16.513Z,9.23
2022-11-21T08:22:44.646Z,9.13
2022-11-21T08:25:20.121Z,9.18
2022-11-21T08:27:55.964Z,9.03
2022-11-21T08:30:26.401Z,9.12
2022-11-21T08:33:11.954Z,8.96
2022-11-21T08:35:41.875Z,9.18
2022-11-21T08:38:09.435Z,9.12
2022-11-21T08:40:36.659Z,9.12
2022-11-21T08:43:08.998Z,8.93
2022-11-21T08:45:41.497Z,8.95
2022-11-21T08:48:15.486Z,8.96
2022-11-21T08:50:42.631Z,9.05
2022-11-21T08:53:09.840Z,9.04
2022-11-21T08:55:37.355Z,8.89
2022-11-21T08:58:04.559Z,8.79
2022-11-21T09:00:32.102Z,9.13
2022-11-21T09:02:59.279Z,8.91
2022-11-21T09:05:29.247Z,8.97
2022-11-21T09:07:57.770Z,9.14
2022-11-21T09:10:26.495Z,9.31
2022-11-21T09:13:00.082Z,8.99
2022-11-21T09:15:27.469Z,9.08
2022-11-21T09:18:00.049Z,9.00
2022-11-21T09:20:31.293Z,9.13
2022-11-21T09:23:06.820Z,8.74
2022-11-21T09:25:35.250Z,8.66
2022-11-21T09:28:03.969Z,8.72
2022-11-21T09:30:32.203Z,9.04
2022-11-21T09:33:04.843Z,8.83
2022-11-21T09:35:32.699Z,9.02
2022-11-21T09:38:03.486Z,8.96
2022-11-21T09:40:32.008Z,9.07
2022-11-21T09:43:30.046Z,8.83
2022-11-21T09:46:10.923Z,8.77
2022-11-21T09:49:06.993Z,8.77
2022-11-21T09:51:38.789Z,8.85
2022-11-21T09:54:32.376Z,8.69
2022-11-21T09:56:59.767Z,8.63
2022-11-21T09:59:35.032Z,8.85
2022-11-21T10:02:10.412Z,8.77
2022-11-21T10:04:37.741Z,8.85
2022-11-21T10:07:15.466Z,8.92
2022-11-21T10:10:06.248Z,8.92
2022-11-21T10:13:04.757Z,9.03
2022-11-21T10:15:41.928Z,9.00
2022-11-21T10:18:37.653Z,9.05
2022-11-21T10:21:26.520Z,9.35
2022-11-21T10:24:33.516Z,9.04
2022-11-21T10:27:07.508Z,9.10
2022-11-21T10:29:43.046Z,9.26
2022-11-21T10:32:21.751Z,9.27
2022-11-21T10:34:56.142Z,9.32
2022-11-21T10:37:38.079Z,9.24
2022-11-21T10:40:14.957Z,9.40
2022-11-21T10:42:55.546Z,9.42
2022-11-21T10:45:22.895Z,9.24
2022-11-21T10:47:54.464Z,9.23
2022-11-21T10:50:50.262Z,9.10
2022-11-21T10:53:22.539Z,8.95
2022-11-21T10:56:18.497Z,8.91
2022-11-21T10:58:49.073Z,8.70
2022-11-21T11:01:34.649Z,9.00
2022-11-21T11:04:37.524Z,8.86
2022-11-21T11:07:29.698Z,8.94
2022-11-21T11:10:27.722Z,9.16
2022-11-21T11:13:01.710Z,9.28
2022-11-21T11:15:36.139Z,9.38
2022-11-21T11:18:14.327Z,11.50
2022-11-21T11:20:44.563Z,12.04
2022-11-21T11:23:20.931Z,10.94
2022-11-21T11:25:51.920Z,10.22
2022-11-21T11:28:20.115Z,9.93
2022-11-21T11:30:51.401Z,9.81
2022-11-21T11:33:32.396Z,9.77
2022-11-21T11:36:42.174Z,10.29
2022-11-21T11:39:18.028Z,10.72
2022-11-21T11:42:03.543Z,11.33
2022-11-21T11:44:47.073Z,10.83
2022-11-21T11:47:24.681Z,10.93
2022-11-21T11:49:58.363Z,10.86
2022-11-21T11:52:31.539Z,10.65
2022-11-21T11:55:06.517Z,10.05
2022-11-21T11:57:36.974Z,9.64
2022-11-21T12:00:35.147Z,9.72
2022-11-21T12:03:13.677Z,9.74
2022-11-21T12:05:54.579Z,9.48
2022-11-21T12:08:42.223Z,9.43
2022-11-21T12:11:38.914Z,9.69
2022-11-21T12:14:34.302Z,9.82
2022-11-21T12:17:09.952Z,10.16
2022-11-21T12:19:39.972Z,10.39
2022-11-21T12:22:10.836Z,10.24
2022-11-21T12:24:43.551Z,9.72
2022-11-21T12:27:26.905Z,9.56
2022-11-21T12:30:01.074Z,9.71
2022-11-21T12:33:08.820Z,9.69
2022-11-21T12:36:16.909Z,9.21
2022-11-21T12:38:57.671Z,9.32
2022-11-21T12:41:39.583Z,9.45
2022-11-21T12:44:37.101Z,9.27
2022-11-21T12:47:26.763Z,8.93
2022-11-21T12:50:21.332Z,9.12
2022-11-21T12:52:56.543Z,9.10
2022-11-21T12:55:35.925Z,9.08
2022-11-21T12:58:17.688Z,8.93
2022-11-21T13:01:03.735Z,9.14
2022-11-21T13:04:02.234Z,9.20
2022-11-21T13:06:41.070Z,9.25
2022-11-21T13:09:20.778Z,9.38
2022-11-21T13:12:05.846Z,9.36
2022-11-21T13:14:40.989Z,9.15
2022-11-21T13:17:29.093Z,9.37
2022-11-21T13:20:19.475Z,9.34
2022-11-21T13:22:51.522Z,9.35
2022-11-21T13:25:39.595Z,9.23
2022-11-21T13:28:18.919Z,9.35
2022-11-21T13:30:50.531Z,9.18
2022-11-21T13:33:39.447Z,9.13
2022-11-21T13:36:34.078Z,9.31
2022-11-21T13:39:01.402Z,9.54
2022-11-21T13:41:37.865Z,9.35
2022-11-21T13:44:33.274Z,9.20
2022-11-21T13:47:08.763Z,9.24
2022-11-21T13:49:43.177Z,9.23
2022-11-21T13:52:28.683Z,9.08
2022-11-21T13:55:01.785Z,9.13
2022-11-21T13:57:53.402Z,9.15
2022-11-21T14:00:54.689Z,9.11
2022-11-21T14:03:28.522Z,9.15
2022-11-21T14:06:03.253Z,9.21
2022-11-21T14:08:34.284Z,9.27
2022-11-21T14:11:30.171Z,9.22
2022-11-21T14:14:04.272Z,9.36
2022-11-21T14:16:52.380Z,9.41
2022-11-21T14:19:20.751Z,9.49
2022-11-21T14:21:52.023Z,9.36
2022-11-21T14:24:20.401Z,9.22
2022-11-21T14:26:51.968Z,9.38
2022-11-21T14:29:43.883Z,9.19
2022-11-21T14:32:25.290Z,9.33
2022-11-21T14:34:55.436Z,9.26
2022-11-21T14:37:23.211Z,9.29
2022-11-21T14:39:56.944Z,9.27
2022-11-21T14:42:34.758Z,9.23
2022-11-21T14:45:17.293Z,9.14
2022-11-21T14:47:52.749Z,9.08
2022-11-21T14:50:30.549Z,9.08
2022-11-21T14:53:04.754Z,8.86
2022-11-21T14:55:33.597Z,8.77
2022-11-21T14:58:06.393Z,8.99
2022-11-21T15:00:58.662Z,8.93
2022-11-21T15:03:24.648Z,8.90
2022-11-21T15:06:10.630Z,8.94
2022-11-21T15:11:48.807Z,8.81
2022-11-21T15:14:39.198Z,8.78
2022-11-21T15:17:12.766Z,8.74
2022-11-21T15:19:47.239Z,8.82
2022-11-21T15:22:29.310Z,8.85
2022-11-21T15:25:33.004Z,8.63
2022-11-21T15:28:03.156Z,8.73
2022-11-21T15:30:35.349Z,8.82
2022-11-21T15:33:08.501Z,8.63
2022-11-21T15:35:45.068Z,8.55
2022-11-21T15:38:40.457Z,8.61
2022-11-21T15:41:25.747Z,8.47
2022-11-21T15:44:00.186Z,8.45
2022-11-21T15:46:36.371Z,8.44
2022-11-21T15:49:32.385Z,8.55
2022-11-21T15:52:12.237Z,8.46
2022-11-21T15:54:42.230Z,8.47
2022-11-21T15:57:14.542Z,8.53
2022-11-21T15:59:49.697Z,8.62
2022-11-21T16:02:20.284Z,8.53
2022-11-21T16:04:50.868Z,8.43
2022-11-21T16:07:21.307Z,8.33
2022-11-21T16:09:52.441Z,8.33
2022-11-21T16:12:19.758Z,8.28
2022-11-21T16:14:53.413Z,8.32
2022-11-21T16:17:23.625Z,8.35
2022-11-21T16:19:57.701Z,8.18
2022-11-21T16:22:25.400Z,8.35
2022-11-21T16:25:02.490Z,8.38
2022-11-21T16:27:36.496Z,8.32
2022-11-21T16:30:07.696Z,8.41
2022-11-21T16:32:41.391Z,8.21
2022-11-21T16:35:17.785Z,8.15
2022-11-21T16:37:51.689Z,8.15
2022-11-21T16:40:19.786Z,8.29
2022-11-21T16:42:47.114Z,8.06
2022-11-21T16:45:18.064Z,8.02
2022-11-21T16:47:49.135Z,7.99
2022-11-21T16:50:23.399Z,8.08
2022-11-21T16:53:19.483Z,8.02
2022-11-21T16:56:09.588Z,7.97
2022-11-21T16:58:59.795Z,7.98
2022-11-21T17:01:52.242Z,7.97
2022-11-21T17:04:42.220Z,7.96
2022-11-21T17:07:16.737Z,7.90
2022-11-21T17:09:51.548Z,8.07
2022-11-21T17:12:21.543Z,8.06
2022-11-21T17:14:58.989Z,7.93
2022-11-21T17:17:31.967Z,7.91
2022-11-21T17:20:04.474Z,8.02
2022-11-21T17:22:39.004Z,7.97
2022-11-21T17:25:09.611Z,8.08
2022-11-21T17:27:37.298Z,8.04
2022-11-21T17:30:08.033Z,8.04
2022-11-21T17:32:37.881Z,8.15
2022-11-21T17:35:15.264Z,8.03
2022-11-21T17:37:45.068Z,8.01
2022-11-21T17:40:21.941Z,8.06
2022-11-21T17:42:56.503Z,8.01
2022-11-21T17:45:29.673Z,7.72
2022-11-21T17:47:56.937Z,8.78
2022-11-21T17:50:30.637Z,8.44
2022-11-21T17:52:58.799Z,8.17
2022-11-21T17:55:28.523Z,7.91
2022-11-21T17:57:59.307Z,7.96
2022-11-21T18:00:27.343Z,7.97
2022-11-21T18:03:00.140Z,7.82
2022-11-21T18:05:34.867Z,7.74
2022-11-21T18:08:06.033Z,7.64
2022-11-21T18:10:44.138Z,7.63
2022-11-21T18:13:21.433Z,7.47
2022-11-21T18:15:54.797Z,7.59
2022-11-21T18:18:29.519Z,7.63
2022-11-21T18:21:20.664Z,7.59
2022-11-21T18:24:00.772Z,7.71
2022-11-21T18:26:39.067Z,7.54
2022-11-21T18:29:35.290Z,7.59
2022-11-21T18:32:08.160Z,7.62
2022-11-21T18:34:44.861Z,7.60
2022-11-21T18:37:15.798Z,7.49
2022-11-21T18:39:49.774Z,7.43
2022-11-21T18:42:23.448Z,7.43
2022-11-21T18:44:53.658Z,7.48
2022-11-21T18:47:27.474Z,7.54
2022-11-21T18:49:57.665Z,7.59
2022-11-21T18:52:33.572Z,7.45
2022-11-21T18:55:03.794Z,7.27
2022-11-21T18:57:34.699Z,7.25
2022-11-21T19:00:06.348Z,7.45
2022-11-21T19:02:40.362Z,7.40
2022-11-21T19:05:12.375Z,7.37
2022-11-21T19:07:48.553Z,7.30
2022-11-21T19:10:41.995Z,7.37
2022-11-21T19:13:14.411Z,7.46
2022-11-21T19:15:47.545Z,7.38
2022-11-21T19:18:17.394Z,7.53
2022-11-21T19:20:53.076Z,7.45
2022-11-21T19:23:27.487Z,7.49
2022-11-21T19:26:05.396Z,7.44
2022-11-21T19:28:39.126Z,7.28
2022-11-21T19:31:11.467Z,7.30
2022-11-21T19:33:45.058Z,7.36
2022-11-21T19:36:22.873Z,7.42
2022-11-21T19:38:53.686Z,7.63
2022-11-21T19:41:26.993Z,7.67
2022-11-21T19:44:01.831Z,7.70
2022-11-21T19:46:38.470Z,7.67
2022-11-21T19:49:15.436Z,7.54
2022-11-21T19:51:51.026Z,7.35
2022-11-21T19:54:18.383Z,7.24
2022-11-21T19:56:52.758Z,7.28
2022-11-21T19:59:26.180Z,7.17
2022-11-21T20:01:53.956Z,7.18
2022-11-21T20:04:24.972Z,7.15
2022-11-21T20:07:02.319Z,7.19
2022-11-21T20:09:34.887Z,7.25
2022-11-21T20:12:05.467Z,7.19
2022-11-21T20:14:38.349Z,7.15
2022-11-21T20:17:11.671Z,7.05
2022-11-21T20:19:50.429Z,6.94
2022-11-21T20:22:21.924Z,6.92
2022-11-21T20:24:56.143Z,6.83
2022-11-21T20:27:33.182Z,6.84
2022-11-21T20:30:03.908Z,6.96
2022-11-21T20:32:32.207Z,6.99
2022-11-21T20:35:02.158Z,6.94
2022-11-21T20:37:35.710Z,7.05
2022-11-21T20:40:06.947Z,6.77
2022-11-21T20:42:34.651Z,6.85
2022-11-21T20:46:06.447Z,6.80
2022-11-21T20:47:55.733Z,6.91
2022-11-21T20:51:18.085Z,6.89
2022-11-21T20:56:23.927Z,6.83
2022-11-21T20:58:54.752Z,6.79
2022-11-21T21:01:31.153Z,6.83
2022-11-21T21:04:04.532Z,6.74
2022-11-21T21:06:35.250Z,6.74
2022-11-21T21:09:02.601Z,6.74
2022-11-21T21:11:54.394Z,6.93
2022-11-21T21:14:24.608Z,6.81
2022-11-21T21:16:52.759Z,6.74
2022-11-21T21:19:23.881Z,6.63
2022-11-21T21:21:51.667Z,6.71
2022-11-21T21:24:22.402Z,6.68
2022-11-21T21:26:55.801Z,6.83
2022-11-21T21:29:26.747Z,6.64
2022-11-21T21:31:56.864Z,6.82
2022-11-21T21:34:28.377Z,6.64
2022-11-21T21:36:58.923Z,6.76
2022-11-21T21:39:30.028Z,6.67
2022-11-21T21:42:00.195Z,6.77
2022-11-21T21:44:33.504Z,6.60
2022-11-21T21:47:03.812Z,6.56
2022-11-21T21:49:34.041Z,6.58
2022-11-21T21:52:08.319Z,6.71
2022-11-21T21:54:39.767Z,6.57
2022-11-21T21:57:13.097Z,6.56
2022-11-21T21:59:44.380Z,6.51
2022-11-21T22:02:14.776Z,6.53
2022-11-21T22:04:51.954Z,6.66
2022-11-21T22:07:22.948Z,6.68
2022-11-21T22:09:53.750Z,6.72
2022-11-21T22:12:27.855Z,6.85
2022-11-21T22:15:04.103Z,6.72
2022-11-21T22:17:37.134Z,6.80
2022-11-21T22:20:05.304Z,6.81
2022-11-21T22:22:36.182Z,6.79
2022-11-21T22:25:06.209Z,6.60
2022-11-21T22:27:36.731Z,6.55
2022-11-21T22:30:04.449Z,6.60
2022-11-21T22:32:34.917Z,6.59
2022-11-21T22:35:11.041Z,6.50
2022-11-21T22:37:41.638Z,6.50
2022-11-21T22:40:12.470Z,6.48
2022-11-21T22:42:42.689Z,6.45
2022-11-21T22:45:13.242Z,6.51
2022-11-21T22:47:47.717Z,6.37
2022-11-21T22:50:18.269Z,6.38
2022-11-21T22:52:51.552Z,6.32
2022-11-21T22:55:19.691Z,6.28
2022-11-21T22:57:47.768Z,6.26
2022-11-21T23:00:18.793Z,6.19
2022-11-21T23:02:48.526Z,6.13
2022-11-21T23:05:15.888Z,6.03
2022-11-21T23:07:49.092Z,6.12
2022-11-21T23:10:23.081Z,5.98
2022-11-21T23:12:50.419Z,5.89
2022-11-21T23:15:17.716Z,5.89
2022-11-21T23:17:48.319Z,5.79
2022-11-21T23:20:22.195Z,5.94
2022-11-21T23:22:50.297Z,5.93
2022-11-21T23:25:21.011Z,5.96
2022-11-21T23:27:51.564Z,5.99
2022-11-21T23:30:21.345Z,6.16
2022-11-21T23:32:51.190Z,6.09
2022-11-21T23:35:25.339Z,6.06
2022-11-21T23:37:56.183Z,6.12
2022-11-21T23:40:29.107Z,6.10
2022-11-21T23:43:02.162Z,6.11
2022-11-21T23:45:29.920Z,6.25
2022-11-21T23:48:03.382Z,6.08
2022-11-21T23:50:34.904Z,6.11
2022-11-21T23:53:05.746Z,6.16
2022-11-21T23:55:36.256Z,6.11
2022-11-21T23:58:11.055Z,6.07
